Time;durP1;ratioP1;P1;durP2;ratioP2;P2;SDS_P1;SDS_P2;PMS_P1;PMS_P2;Temp;Humidity;BMP_temperature;BMP_pressure;BME280_temperature;BME280_humidity;BME280_pressure;Samples;Min_cycle;Max_cycle;Signal;HPM_P1;HPM_P2
2023/01/09 00:02:18;;;;;;;20.27;11.77;;;3.90;99.90;;;;;;5013369;28;20037;-82
2023/01/09 00:04:43;;;;;;;19.53;10.80;;;3.90;99.90;;;;;;5013246;28;20475;-82
2023/01/09 00:07:09;;;;;;;15.97;10.03;;;3.90;99.90;;;;;;5013494;28;20037;-82
2023/01/09 00:09:34;;;;;;;14.57;9.90;;;3.90;99.90;;;;;;5013173;28;20028;-82
2023/01/09 00:12:01;;;;;;;15.90;9.30;;;3.90;99.90;;;;;;4995575;28;20028;-82
2023/01/09 00:14:26;;;;;;;14.17;8.37;;;3.90;99.90;;;;;;4995532;28;20070;-82
2023/01/09 00:16:54;;;;;;;14.83;9.37;;;3.90;99.90;;;;;;5013229;28;20061;-83
2023/01/09 00:19:20;;;;;;;13.00;8.70;;;3.90;99.90;;;;;;5013333;28;20018;-82
2023/01/09 00:21:45;;;;;;;15.60;9.03;;;3.90;99.90;;;;;;5013073;28;20033;-82
2023/01/09 00:24:11;;;;;;;12.83;8.80;;;4.00;99.90;;;;;;5013900;28;20032;-82
2023/01/09 00:26:36;;;;;;;15.27;9.17;;;4.00;99.90;;;;;;4995605;28;20018;-82
2023/01/09 00:29:02;;;;;;;15.03;9.17;;;4.00;99.90;;;;;;5013222;28;20494;-82
2023/01/09 00:31:28;;;;;;;12.57;8.57;;;4.00;99.90;;;;;;5013832;28;20030;-82
2023/01/09 00:34:03;;;;;;;15.00;9.63;;;4.00;99.90;;;;;;5013105;28;20022;-82
2023/01/09 00:36:29;;;;;;;15.57;9.27;;;4.10;99.90;;;;;;5013155;28;20387;-82
2023/01/09 00:38:55;;;;;;;13.77;8.37;;;4.00;99.90;;;;;;4995937;28;20029;-82
2023/01/09 00:41:31;;;;;;;13.77;9.17;;;4.10;99.90;;;;;;5012998;28;20037;-82
2023/01/09 00:44:01;;;;;;;12.97;8.60;;;4.00;99.90;;;;;;5013336;28;20030;-83
2023/01/09 00:46:33;;;;;;;14.57;8.90;;;4.10;99.90;;;;;;5013094;28;20037;-82
2023/01/09 00:49:01;;;;;;;13.87;8.83;;;4.10;99.90;;;;;;5013322;28;20105;-82
2023/01/09 00:51:27;;;;;;;13.87;8.97;;;4.10;99.90;;;;;;4995388;28;20018;-82
2023/01/09 00:53:53;;;;;;;12.53;8.67;;;4.10;99.90;;;;;;4995458;28;20029;-82
2023/01/09 00:56:20;;;;;;;12.93;8.33;;;4.10;99.90;;;;;;4995746;28;20022;-82
2023/01/09 00:58:46;;;;;;;13.10;9.00;;;4.10;99.90;;;;;;5006407;28;20025;-83
2023/01/09 01:01:12;;;;;;;13.83;8.23;;;4.10;99.90;;;;;;5012934;28;20114;-82
2023/01/09 01:03:37;;;;;;;15.83;9.63;;;4.10;99.90;;;;;;5014020;28;20426;-82
2023/01/09 01:08:47;;;;;;;13.80;8.93;;;4.10;99.90;;;;;;5000173;28;20037;-82
2023/01/09 01:11:13;;;;;;;12.47;8.40;;;4.20;99.90;;;;;;5016230;28;20073;-83
2023/01/09 01:13:40;;;;;;;11.63;9.00;;;4.20;99.90;;;;;;5015190;28;20432;-83
2023/01/09 01:16:08;;;;;;;13.67;8.93;;;4.20;99.90;;;;;;5016380;28;20038;-83
2023/01/09 01:18:33;;;;;;;13.83;8.60;;;4.20;99.90;;;;;;5016349;28;20478;-83
2023/01/09 01:20:59;;;;;;;13.30;8.80;;;4.20;99.90;;;;;;5016390;28;20026;-83
2023/01/09 01:23:25;;;;;;;18.70;12.07;;;4.10;99.90;;;;;;5016583;28;20475;-82
2023/01/09 01:25:51;;;;;;;16.13;11.20;;;4.10;99.90;;;;;;5017146;28;20044;-83
2023/01/09 01:28:16;;;;;;;15.47;10.60;;;4.10;99.90;;;;;;5016404;28;20057;-82
2023/01/09 01:30:42;;;;;;;17.37;9.53;;;4.10;99.90;;;;;;5015987;28;20061;-83
2023/01/09 01:33:09;;;;;;;15.07;10.10;;;4.10;99.90;;;;;;5016026;28;20076;-82
2023/01/09 01:35:35;;;;;;;15.70;10.00;;;4.10;99.90;;;;;;5015822;28;20045;-82
2023/01/09 01:38:01;;;;;;;14.03;10.00;;;4.10;99.90;;;;;;5016188;28;20378;-83
2023/01/09 01:40:27;;;;;;;13.33;9.70;;;4.10;99.90;;;;;;5015908;28;20034;-83
2023/01/09 01:42:53;;;;;;;16.47;9.87;;;4.10;99.90;;;;;;5015535;28;20030;-83
2023/01/09 01:45:27;;;;;;;16.10;8.87;;;4.10;99.90;;;;;;5015489;28;20459;-83
2023/01/09 01:48:06;;;;;;;13.70;9.80;;;4.10;99.90;;;;;;5014664;28;20038;-83
2023/01/09 01:50:55;;;;;;;12.93;9.17;;;4.10;99.90;;;;;;5015620;28;20098;-83
2023/01/09 01:53:38;;;;;;;11.83;8.27;;;4.10;99.90;;;;;;4994649;28;20033;-82
2023/01/09 01:56:29;;;;;;;12.77;8.33;;;4.10;99.90;;;;;;5004011;28;20025;-83
2023/01/09 01:59:09;;;;;;;14.63;9.93;;;4.10;99.90;;;;;;5015583;28;20129;-82
2023/01/09 02:01:39;;;;;;;13.00;8.60;;;4.10;99.90;;;;;;5015413;28;20060;-83
2023/01/09 02:04:05;;;;;;;12.37;8.87;;;4.10;99.90;;;;;;5015950;28;20093;-83
2023/01/09 02:06:33;;;;;;;12.40;8.60;;;4.10;99.90;;;;;;5015352;28;20064;-83
2023/01/09 02:09:01;;;;;;;10.50;8.30;;;4.10;99.90;;;;;;5015227;28;20029;-83
2023/01/09 02:11:27;;;;;;;11.17;7.93;;;4.10;99.90;;;;;;5015496;28;20487;-83
2023/01/09 02:13:53;;;;;;;12.63;9.07;;;4.10;99.90;;;;;;5014944;28;20073;-83
2023/01/09 02:16:46;;;;;;;13.40;8.73;;;4.10;99.90;;;;;;5014744;28;20387;-83
2023/01/09 02:19:44;;;;;;;13.20;8.50;;;4.10;99.90;;;;;;5010376;28;20408;-83
2023/01/09 02:22:46;;;;;;;13.83;8.27;;;4.10;99.90;;;;;;5015144;28;20037;-83
2023/01/09 02:25:50;;;;;;;11.27;7.03;;;4.10;99.90;;;;;;5014416;28;20029;-83
2023/01/09 02:28:42;;;;;;;9.67;7.30;;;4.10;99.90;;;;;;4985603;28;20021;-83
2023/01/09 02:31:20;;;;;;;11.63;7.17;;;4.20;99.90;;;;;;4991453;28;20095;-83
2023/01/09 02:34:04;;;;;;;9.90;7.33;;;4.20;99.90;;;;;;5014836;28;20104;-83
2023/01/09 02:36:53;;;;;;;12.30;6.83;;;4.20;99.90;;;;;;4997512;28;20026;-83
2023/01/09 02:39:31;;;;;;;8.27;6.00;;;4.20;99.90;;;;;;5001571;28;20109;-83
2023/01/09 02:42:12;;;;;;;8.97;6.17;;;4.20;99.90;;;;;;5002064;28;20041;-83
2023/01/09 02:44:41;;;;;;;8.20;5.80;;;4.30;99.90;;;;;;5014791;28;20022;-83
2023/01/09 02:47:16;;;;;;;8.60;5.90;;;4.30;99.90;;;;;;5014801;28;20029;-83
2023/01/09 02:49:52;;;;;;;10.07;5.93;;;4.30;99.90;;;;;;5012709;28;20041;-83
2023/01/09 02:52:36;;;;;;;7.77;6.20;;;4.30;99.90;;;;;;4996665;28;20080;-83
2023/01/09 02:55:11;;;;;;;10.63;6.60;;;4.30;99.90;;;;;;5013815;28;20030;-83
2023/01/09 02:58:07;;;;;;;8.68;5.55;;;4.40;99.90;;;;;;5014355;28;20391;-82
2023/01/09 03:00:45;;;;;;;10.13;6.10;;;4.40;99.90;;;;;;5014542;28;20022;-83
2023/01/09 03:03:26;;;;;;;9.27;6.50;;;4.50;99.90;;;;;;5014469;28;20034;-83
2023/01/09 03:05:59;;;;;;;8.07;6.03;;;4.50;99.90;;;;;;5014374;28;20034;-83
2023/01/09 03:08:35;;;;;;;7.97;5.67;;;4.50;99.90;;;;;;4996300;28;20393;-83
2023/01/09 03:11:05;;;;;;;9.77;6.40;;;4.50;99.90;;;;;;5013269;28;20061;-83
2023/01/09 03:13:34;;;;;;;8.83;6.10;;;4.50;99.90;;;;;;5014228;28;20033;-83
2023/01/09 03:16:04;;;;;;;9.73;6.87;;;4.50;99.90;;;;;;5014168;28;20054;-83
2023/01/09 03:18:31;;;;;;;9.30;6.37;;;4.50;99.90;;;;;;5014141;28;20105;-83
2023/01/09 03:20:57;;;;;;;9.40;6.60;;;4.50;99.90;;;;;;5014445;28;20030;-82
2023/01/09 03:23:23;;;;;;;8.57;6.33;;;4.50;99.90;;;;;;4996268;28;20040;-83
2023/01/09 03:25:48;;;;;;;8.63;5.80;;;4.50;99.90;;;;;;5013507;28;20037;-83
2023/01/09 03:28:26;;;;;;;7.37;4.90;;;4.50;99.90;;;;;;5013600;28;20056;-82
2023/01/09 03:30:52;;;;;;;6.60;5.20;;;4.50;99.90;;;;;;5013963;28;20026;-83
2023/01/09 03:33:18;;;;;;;7.53;4.23;;;4.60;99.90;;;;;;5014281;28;20093;-82
2023/01/09 03:35:43;;;;;;;7.43;4.43;;;4.60;99.90;;;;;;5012993;28;20463;-82
2023/01/09 03:38:09;;;;;;;6.97;4.27;;;4.60;99.90;;;;;;5012584;28;20074;-83
2023/01/09 03:40:35;;;;;;;6.30;4.43;;;4.60;99.90;;;;;;5013380;28;20038;-82
2023/01/09 03:43:00;;;;;;;5.67;3.90;;;4.60;99.90;;;;;;5013738;28;20038;-82
2023/01/09 03:45:26;;;;;;;7.50;4.10;;;4.60;99.90;;;;;;5013640;28;20034;-82
2023/01/09 03:47:52;;;;;;;6.33;4.27;;;4.70;99.90;;;;;;4995278;28;20084;-82
2023/01/09 03:50:17;;;;;;;5.93;4.00;;;4.70;99.90;;;;;;5013529;28;20097;-82
2023/01/09 03:52:43;;;;;;;6.83;3.50;;;4.70;99.90;;;;;;5013276;28;20348;-83
2023/01/09 03:55:09;;;;;;;6.40;3.97;;;4.70;99.90;;;;;;5013435;28;20069;-83
2023/01/09 03:57:34;;;;;;;4.60;3.43;;;4.70;99.90;;;;;;5013300;28;20117;-83
2023/01/09 04:00:00;;;;;;;4.63;3.30;;;4.70;99.90;;;;;;5013524;28;20084;-82
2023/01/09 04:02:25;;;;;;;5.57;3.43;;;4.80;99.90;;;;;;5013766;28;20188;-82
2023/01/09 04:04:51;;;;;;;6.00;4.00;;;4.80;99.90;;;;;;5013885;28;20037;-83
2023/01/09 04:07:16;;;;;;;7.10;3.27;;;4.80;99.90;;;;;;5013441;28;20030;-83
2023/01/09 04:09:42;;;;;;;6.20;3.50;;;4.80;99.90;;;;;;5013456;28;20026;-83
2023/01/09 04:12:07;;;;;;;5.30;3.23;;;4.80;99.90;;;;;;5013371;28;20025;-82
2023/01/09 04:14:33;;;;;;;5.83;3.30;;;4.90;99.90;;;;;;5011730;28;20054;-83
2023/01/09 04:16:58;;;;;;;4.80;2.80;;;4.90;99.90;;;;;;4994595;28;20490;-82
2023/01/09 04:19:24;;;;;;;3.87;2.47;;;5.00;99.90;;;;;;5013060;28;20041;-83
2023/01/09 04:21:49;;;;;;;4.53;2.67;;;5.10;99.90;;;;;;5012989;28;20030;-83
2023/01/09 04:24:15;;;;;;;4.07;2.57;;;5.20;99.90;;;;;;5013109;28;20041;-83
2023/01/09 04:26:40;;;;;;;2.77;1.90;;;5.30;99.90;;;;;;5012995;28;20030;-82
2023/01/09 04:29:06;;;;;;;2.93;2.00;;;5.40;99.90;;;;;;4995040;28;20040;-83
2023/01/09 04:31:31;;;;;;;2.50;1.80;;;5.60;99.90;;;;;;5012312;28;20061;-83
2023/01/09 04:33:57;;;;;;;2.67;1.80;;;5.70;99.90;;;;;;5011970;28;20105;-83
2023/01/09 04:36:22;;;;;;;2.83;1.80;;;5.70;99.90;;;;;;5012345;28;20425;-83
2023/01/09 04:38:48;;;;;;;5.40;2.17;;;5.80;99.90;;;;;;5015365;28;20053;-83
2023/01/09 04:41:47;;;;;;;2.93;1.93;;;5.90;99.90;;;;;;5016360;28;20030;-83
2023/01/09 04:43:59;;;;;;;2.83;1.85;;;6.00;99.90;;;;;;5016418;28;20034;-83
2023/01/09 04:46:24;;;;;;;2.73;1.77;;;6.00;99.90;;;;;;5016508;28;20038;-83
2023/01/09 04:48:50;;;;;;;2.70;1.67;;;6.00;99.90;;;;;;5016700;28;20104;-83
2023/01/09 04:51:15;;;;;;;2.53;1.60;;;6.00;99.90;;;;;;5015681;28;20129;-83
2023/01/09 04:53:41;;;;;;;2.53;1.40;;;6.10;99.90;;;;;;5000340;28;20053;-84
2023/01/09 04:56:06;;;;;;;1.57;1.30;;;6.10;99.90;;;;;;5018846;28;20050;-84
2023/01/09 04:58:32;;;;;;;2.10;1.10;;;6.10;99.90;;;;;;5018705;28;20026;-85
2023/01/09 05:00:57;;;;;;;1.03;0.97;;;6.20;99.90;;;;;;5000898;28;20042;-85
2023/01/09 05:03:23;;;;;;;2.70;1.00;;;6.30;99.90;;;;;;5018288;28;20125;-85
2023/01/09 05:05:49;;;;;;;1.83;0.90;;;6.40;99.90;;;;;;5017468;28;20340;-85
2023/01/09 05:08:14;;;;;;;0.70;0.70;;;6.50;99.90;;;;;;5018399;28;20554;-84
2023/01/09 05:10:39;;;;;;;0.77;0.70;;;6.50;99.90;;;;;;5018155;28;20494;-84
2023/01/09 05:13:05;;;;;;;0.70;0.70;;;6.60;99.90;;;;;;5000353;28;20022;-84
2023/01/09 05:15:31;;;;;;;0.90;0.80;;;6.70;99.90;;;;;;5017049;28;20356;-84
2023/01/09 05:17:56;;;;;;;0.97;0.80;;;6.80;99.90;;;;;;5016766;28;20030;-84
2023/01/09 05:20:24;;;;;;;0.60;0.60;;;6.90;99.90;;;;;;5016406;28;20034;-84
2023/01/09 05:22:51;;;;;;;0.60;0.60;;;7.00;99.90;;;;;;4998621;28;20025;-84
2023/01/09 05:25:17;;;;;;;0.50;0.50;;;7.00;99.90;;;;;;4999594;28;20033;-84
2023/01/09 05:27:45;;;;;;;1.00;0.80;;;7.00;99.90;;;;;;5016948;28;20121;-84
2023/01/09 05:30:12;;;;;;;1.13;0.70;;;7.00;99.90;;;;;;4998123;28;21130;-84
2023/01/09 05:32:37;;;;;;;0.60;0.50;;;7.00;99.90;;;;;;5016534;28;20046;-82
2023/01/09 05:35:03;;;;;;;0.60;0.60;;;7.00;99.90;;;;;;5013399;28;20053;-72
2023/01/09 05:37:28;;;;;;;0.97;0.80;;;6.90;99.90;;;;;;5011006;28;20037;-81
2023/01/09 05:39:54;;;;;;;0.60;0.60;;;7.00;99.90;;;;;;5013202;28;20046;-83
2023/01/09 05:42:19;;;;;;;1.13;0.60;;;7.00;99.90;;;;;;5013479;28;20032;-83
2023/01/09 05:44:45;;;;;;;0.63;0.63;;;7.00;99.90;;;;;;5016863;28;20040;-83
2023/01/09 05:47:10;;;;;;;1.03;0.60;;;6.90;99.90;;;;;;5016979;28;20470;-82
2023/01/09 05:49:36;;;;;;;1.43;0.50;;;6.90;99.90;;;;;;5013864;28;20061;-82
2023/01/09 05:52:02;;;;;;;1.23;0.77;;;6.80;99.90;;;;;;4994531;28;20026;-83
2023/01/09 05:54:27;;;;;;;0.97;0.70;;;6.80;99.90;;;;;;5020562;28;20386;-82
2023/01/09 05:56:53;;;;;;;0.87;0.67;;;6.80;99.90;;;;;;5012979;28;20091;-82
2023/01/09 05:59:19;;;;;;;1.50;0.60;;;6.70;99.90;;;;;;5014240;28;20120;-82
2023/01/09 06:01:44;;;;;;;0.83;0.60;;;6.70;99.90;;;;;;5013329;28;20030;-83
2023/01/09 06:04:10;;;;;;;0.60;0.60;;;6.70;99.90;;;;;;5016092;28;20026;-83
2023/01/09 06:06:35;;;;;;;1.13;0.60;;;6.70;99.90;;;;;;5013023;28;20116;-83
2023/01/09 06:09:02;;;;;;;0.43;0.43;;;6.70;99.90;;;;;;5016028;28;20113;-83
2023/01/09 06:11:28;;;;;;;0.50;0.50;;;6.70;99.90;;;;;;5009264;28;20029;-83
2023/01/09 06:13:53;;;;;;;1.00;0.60;;;6.70;99.90;;;;;;5011871;28;20040;-83
2023/01/09 06:16:19;;;;;;;0.73;0.60;;;6.70;99.90;;;;;;5018319;28;20037;-81
2023/01/09 06:18:45;;;;;;;0.50;0.50;;;6.70;99.90;;;;;;5010148;28;20041;-82
2023/01/09 06:21:13;;;;;;;0.70;0.60;;;6.70;99.90;;;;;;5008219;28;20037;-82
2023/01/09 06:23:39;;;;;;;1.17;0.60;;;6.70;99.90;;;;;;5011208;28;20034;-82
2023/01/09 06:26:04;;;;;;;0.60;0.50;;;6.70;99.90;;;;;;5006984;28;20040;-81
2023/01/09 06:28:30;;;;;;;0.67;0.50;;;6.70;99.90;;;;;;5007240;28;20120;-80
2023/01/09 06:30:55;;;;;;;0.50;0.50;;;6.60;99.90;;;;;;4988675;28;20036;-81
2023/01/09 06:33:21;;;;;;;0.60;0.57;;;6.60;99.90;;;;;;5004500;28;20114;-80
2023/01/09 06:35:47;;;;;;;1.27;0.57;;;6.60;99.90;;;;;;4984037;28;20037;-81
2023/01/09 06:38:12;;;;;;;0.50;0.50;;;6.50;99.90;;;;;;5003928;28;20041;-81
2023/01/09 06:40:38;;;;;;;0.60;0.53;;;6.50;99.90;;;;;;5003634;28;20503;-81
2023/01/09 06:43:03;;;;;;;0.40;0.40;;;6.40;99.90;;;;;;5003966;28;20034;-81
2023/01/09 06:45:29;;;;;;;2.07;0.70;;;6.40;99.90;;;;;;5005687;28;20494;-81
2023/01/09 06:47:55;;;;;;;0.50;0.50;;;6.30;99.90;;;;;;5005935;28;20056;-82
2023/01/09 06:50:20;;;;;;;0.97;0.60;;;6.30;99.90;;;;;;4986320;28;20120;-82
2023/01/09 06:52:46;;;;;;;0.60;0.60;;;6.30;99.90;;;;;;5007718;28;20164;-82
2023/01/09 06:55:11;;;;;;;0.50;0.50;;;6.30;99.90;;;;;;5005226;28;20124;-82
2023/01/09 06:57:37;;;;;;;0.60;0.60;;;6.20;99.90;;;;;;4989863;28;20120;-82
2023/01/09 07:00:04;;;;;;;0.50;0.50;;;6.20;99.90;;;;;;5006982;28;20037;-81
2023/01/09 07:02:29;;;;;;;0.70;0.50;;;6.20;99.90;;;;;;5003561;28;20121;-81
2023/01/09 07:04:55;;;;;;;0.50;0.50;;;6.20;99.90;;;;;;5007328;28;20117;-82
2023/01/09 07:07:21;;;;;;;2.63;0.50;;;6.10;99.90;;;;;;5006786;28;20034;-82
2023/01/09 07:09:47;;;;;;;1.13;0.50;;;6.10;99.90;;;;;;5006072;28;20375;-81
2023/01/09 07:12:14;;;;;;;0.50;0.40;;;6.10;99.90;;;;;;5006052;28;20034;-81
2023/01/09 07:14:40;;;;;;;0.70;0.50;;;6.10;99.90;;;;;;5005446;28;20403;-81
2023/01/09 07:17:06;;;;;;;0.40;0.40;;;6.10;99.90;;;;;;5006582;28;20037;-81
2023/01/09 07:19:31;;;;;;;0.50;0.50;;;6.10;99.90;;;;;;5008409;28;20034;-81
2023/01/09 07:21:57;;;;;;;0.50;0.50;;;6.00;99.90;;;;;;5006173;28;20109;-81
2023/01/09 07:24:23;;;;;;;0.77;0.53;;;6.00;99.90;;;;;;5007277;28;20105;-81
2023/01/09 07:26:48;;;;;;;0.53;0.50;;;6.00;99.90;;;;;;5004488;28;20769;-81
2023/01/09 07:29:14;;;;;;;0.50;0.50;;;6.10;99.90;;;;;;5004735;28;20052;-79
2023/01/09 07:31:39;;;;;;;0.50;0.50;;;6.10;99.90;;;;;;5005999;28;20073;-80
2023/01/09 07:34:05;;;;;;;0.53;0.50;;;6.00;99.90;;;;;;5008788;28;20038;-80
2023/01/09 07:36:30;;;;;;;2.73;0.70;;;6.00;99.90;;;;;;5010483;28;20046;-79
2023/01/09 07:38:56;;;;;;;0.50;0.50;;;6.10;99.90;;;;;;5011191;28;20030;-78
2023/01/09 07:41:21;;;;;;;0.50;0.50;;;6.00;99.90;;;;;;4992884;28;20386;-78
2023/01/09 07:43:47;;;;;;;0.80;0.60;;;5.90;99.90;;;;;;5009174;28;20033;-78
2023/01/09 07:46:12;;;;;;;0.77;0.50;;;5.80;99.90;;;;;;5009267;28;20052;-79
2023/01/09 07:48:38;;;;;;;0.50;0.50;;;5.70;99.90;;;;;;5008586;28;20037;-79
2023/01/09 07:51:05;;;;;;;0.70;0.40;;;5.60;99.90;;;;;;5006263;28;20723;-81
2023/01/09 07:53:30;;;;;;;1.70;0.80;;;5.50;99.90;;;;;;4988840;28;21357;-81
2023/01/09 07:55:56;;;;;;;1.10;0.67;;;5.40;99.90;;;;;;4987536;28;20075;-83
2023/01/09 07:58:21;;;;;;;0.93;0.80;;;5.30;99.90;;;;;;4988117;28;20167;-82
2023/01/09 08:00:47;;;;;;;0.90;0.67;;;5.20;99.90;;;;;;5005131;28;20037;-81
2023/01/09 08:03:12;;;;;;;0.70;0.67;;;5.10;99.90;;;;;;5005802;28;20533;-81
2023/01/09 08:05:38;;;;;;;0.70;0.70;;;5.10;99.90;;;;;;5005732;28;20038;-81
2023/01/09 08:08:03;;;;;;;1.90;1.00;;;5.00;99.90;;;;;;4987884;28;20029;-82
2023/01/09 08:10:29;;;;;;;0.80;0.70;;;4.90;99.90;;;;;;5007071;28;20042;-82
2023/01/09 08:12:54;;;;;;;1.70;0.87;;;4.80;99.90;;;;;;5005309;28;20459;-81
2023/01/09 08:15:20;;;;;;;0.70;0.70;;;4.90;99.90;;;;;;5004028;28;20612;-81
2023/01/09 08:17:46;;;;;;;1.33;0.87;;;4.90;99.90;;;;;;5004947;28;20408;-81
2023/01/09 08:20:13;;;;;;;0.60;0.60;;;4.80;99.90;;;;;;5007524;28;20181;-82
2023/01/09 08:22:43;;;;;;;3.03;0.80;;;4.80;99.90;;;;;;5005697;28;20030;-82
2023/01/09 08:25:09;;;;;;;1.00;0.80;;;4.80;99.90;;;;;;5004575;28;20034;-80
2023/01/09 08:27:35;;;;;;;0.93;0.70;;;4.70;99.90;;;;;;5009353;28;20034;-81
2023/01/09 08:30:01;;;;;;;0.70;0.70;;;4.80;99.90;;;;;;4989405;28;20038;-83
2023/01/09 08:32:26;;;;;;;1.70;0.70;;;4.70;99.90;;;;;;4988165;28;20052;-83
2023/01/09 08:34:52;;;;;;;1.17;0.70;;;4.70;99.90;;;;;;5004505;28;20364;-83
2023/01/09 08:37:17;;;;;;;0.80;0.80;;;4.70;99.90;;;;;;5005630;28;20061;-83
2023/01/09 08:39:43;;;;;;;1.03;0.73;;;4.70;99.90;;;;;;5005823;28;20045;-82
2023/01/09 08:47:41;;;;;;;2.00;1.03;;;4.90;99.90;;;;;;4975204;28;20148;-82
2023/01/09 08:50:07;;;;;;;3.53;1.00;;;5.10;99.90;;;;;;4989499;28;20538;-82
2023/01/09 08:52:32;;;;;;;1.90;0.80;;;5.10;99.90;;;;;;4988083;28;20167;-82
2023/01/09 08:54:58;;;;;;;1.40;0.80;;;5.30;99.90;;;;;;5008390;28;20057;-79
2023/01/09 08:57:23;;;;;;;1.87;0.80;;;5.50;99.90;;;;;;5010300;28;20212;-79
2023/01/09 08:59:49;;;;;;;1.43;0.70;;;5.50;99.90;;;;;;5006038;28;20041;-83
2023/01/09 09:02:15;;;;;;;2.80;0.80;;;5.60;99.90;;;;;;5005800;28;20065;-82
2023/01/09 09:04:40;;;;;;;2.77;0.87;;;5.80;99.90;;;;;;5002741;28;20061;-82
2023/01/09 09:07:06;;;;;;;0.97;0.87;;;5.80;99.90;;;;;;5002327;28;20057;-82
2023/01/09 09:09:31;;;;;;;1.40;1.00;;;5.80;99.90;;;;;;5005547;28;20065;-82
2023/01/09 09:11:57;;;;;;;1.70;0.70;;;5.80;99.90;;;;;;4987038;28;20030;-82
2023/01/09 09:17:06;;;;;;;2.50;0.80;;;5.80;99.90;;;;;;5005311;28;20033;-79
2023/01/09 09:19:32;;;;;;;2.40;0.90;;;5.80;99.90;;;;;;5011120;28;20030;-79
2023/01/09 09:21:58;;;;;;;3.37;0.80;;;5.90;99.90;;;;;;5007912;28;20029;-79
2023/01/09 09:24:23;;;;;;;2.20;0.80;;;5.80;99.90;;;;;;5004499;28;20108;-80
2023/01/09 09:26:49;;;;;;;2.00;0.90;;;5.90;99.90;;;;;;4987084;28;20387;-81
2023/01/09 09:29:14;;;;;;;3.90;1.20;;;5.90;99.90;;;;;;5006386;28;20812;-81
2023/01/09 09:31:40;;;;;;;1.30;0.90;;;5.80;99.90;;;;;;4987410;28;20168;-81
2023/01/09 09:34:06;;;;;;;1.97;0.90;;;5.90;99.90;;;;;;5010799;28;20129;-78
2023/01/09 09:36:32;;;;;;;3.13;0.80;;;5.90;99.90;;;;;;5010042;28;20041;-79
2023/01/09 09:38:57;;;;;;;2.27;0.80;;;5.90;99.90;;;;;;5009304;28;20034;-82
2023/01/09 09:44:45;;;;;;;2.00;1.00;;;5.90;99.90;;;;;;5009393;28;20036;-82
2023/01/09 09:47:42;;;;;;;2.33;1.00;;;5.90;99.90;;;;;;5008422;28;20026;-81
2023/01/09 09:50:13;;;;;;;3.43;0.93;;;5.80;99.90;;;;;;5007705;28;20030;-82
2023/01/09 09:53:09;;;;;;;1.87;0.80;;;5.70;99.90;;;;;;4988931;28;20116;-82
2023/01/09 09:55:40;;;;;;;3.00;0.95;;;5.70;99.90;;;;;;5009429;28;20042;-82
2023/01/09 09:58:38;;;;;;;2.37;0.97;;;5.80;99.90;;;;;;5009405;28;20050;-82
2023/01/09 10:01:06;;;;;;;3.60;1.43;;;5.80;99.90;;;;;;5002651;28;20033;-82
2023/01/09 10:03:37;;;;;;;5.47;1.40;;;5.80;99.90;;;;;;5006245;28;20094;-82
2023/01/09 10:06:08;;;;;;;4.20;1.80;;;5.80;99.90;;;;;;5004700;28;20034;-83
2023/01/09 10:09:14;;;;;;;3.50;1.20;;;5.80;99.90;;;;;;5006529;28;20034;-82
2023/01/09 10:12:10;;;;;;;3.27;0.97;;;5.80;99.90;;;;;;4989964;28;20817;-82
2023/01/09 10:14:36;;;;;;;4.63;0.90;;;5.80;99.90;;;;;;4999489;28;20034;-82
2023/01/09 10:17:02;;;;;;;3.77;1.00;;;5.90;99.90;;;;;;4989494;28;20030;-82
2023/01/09 10:19:39;;;;;;;1.77;0.83;;;6.00;99.90;;;;;;5008928;28;20134;-82
2023/01/09 10:22:16;;;;;;;3.63;0.93;;;6.10;99.90;;;;;;5008793;28;20026;-82
2023/01/09 10:25:14;;;;;;;3.37;0.90;;;6.10;99.90;;;;;;4988661;28;20402;-82
2023/01/09 10:27:48;;;;;;;3.37;1.23;;;6.20;99.90;;;;;;4988970;28;20026;-83
2023/01/09 10:30:47;;;;;;;2.53;0.90;;;6.30;99.90;;;;;;5002458;28;20056;-82
2023/01/09 10:33:27;;;;;;;4.03;1.10;;;6.30;99.90;;;;;;4981672;28;20049;-80
2023/01/09 10:36:29;;;;;;;4.17;1.00;;;6.30;99.90;;;;;;5002778;28;20075;-80
2023/01/09 10:39:00;;;;;;;4.63;1.30;;;6.40;99.90;;;;;;5004800;28;20022;-81
2023/01/09 10:41:54;;;;;;;2.80;1.00;;;6.30;99.90;;;;;;5002014;28;20117;-81
2023/01/09 10:44:32;;;;;;;5.13;1.10;;;6.40;99.90;;;;;;4949945;28;20041;-81
2023/01/09 10:47:00;;;;;;;5.97;1.23;;;6.40;99.90;;;;;;4989892;28;20084;-81
2023/01/09 10:49:26;;;;;;;5.13;1.10;;;6.40;99.90;;;;;;5001910;28;20092;-81
2023/01/09 10:52:19;;;;;;;5.43;1.43;;;6.40;99.90;;;;;;5002073;28;20558;-81
2023/01/09 10:54:55;;;;;;;3.57;1.40;;;6.50;99.90;;;;;;5000347;28;20981;-81
2023/01/09 10:57:43;;;;;;;2.60;1.00;;;6.50;99.90;;;;;;4998813;28;20030;-81
2023/01/09 11:00:23;;;;;;;4.10;1.00;;;6.40;99.90;;;;;;5001626;28;20026;-81
2023/01/09 11:02:50;;;;;;;4.57;1.00;;;6.50;99.90;;;;;;5005214;28;20029;-79
2023/01/09 11:05:27;;;;;;;4.60;1.10;;;6.50;99.90;;;;;;5002375;28;20026;-81
2023/01/09 11:08:10;;;;;;;4.13;1.07;;;6.50;99.90;;;;;;4985813;28;20034;-81
2023/01/09 11:10:51;;;;;;;4.80;1.10;;;6.50;99.90;;;;;;5001224;28;20647;-81
2023/01/09 11:13:21;;;;;;;4.57;1.30;;;6.50;99.90;;;;;;4983352;28;20191;-81
2023/01/09 11:16:08;;;;;;;9.57;2.17;;;6.50;99.90;;;;;;5002272;28;20400;-81
2023/01/09 11:18:39;;;;;;;4.00;1.43;;;6.60;99.90;;;;;;5006326;28;20113;-81
2023/01/09 11:21:13;;;;;;;3.07;1.10;;;6.60;99.90;;;;;;5002978;28;20033;-81
2023/01/09 11:23:39;;;;;;;9.57;1.60;;;6.60;99.90;;;;;;5001438;28;20026;-81
2023/01/09 11:26:04;;;;;;;2.53;1.10;;;6.60;99.90;;;;;;5006303;28;20040;-81
2023/01/09 11:28:30;;;;;;;3.07;1.10;;;6.70;99.90;;;;;;5003861;28;20116;-81
2023/01/09 11:31:01;;;;;;;4.53;1.40;;;6.70;99.90;;;;;;4978327;28;21359;-81
2023/01/09 11:33:34;;;;;;;1.63;0.83;;;6.70;99.90;;;;;;5000376;28;20076;-80
2023/01/09 11:36:01;;;;;;;2.97;0.90;;;6.80;99.90;;;;;;5001206;28;20625;-81
2023/01/09 11:38:29;;;;;;;5.77;1.37;;;6.80;99.90;;;;;;5000568;28;20025;-81
2023/01/09 11:40:58;;;;;;;2.67;1.10;;;6.80;99.90;;;;;;5004935;28;20140;-81
2023/01/09 11:43:36;;;;;;;3.40;1.17;;;6.80;99.90;;;;;;5004856;28;20036;-80
2023/01/09 11:46:10;;;;;;;5.00;1.20;;;6.90;99.90;;;;;;4998860;28;20034;-81
2023/01/09 11:48:55;;;;;;;2.73;0.80;;;6.90;99.90;;;;;;4994589;28;20141;-82
2023/01/09 11:51:27;;;;;;;4.38;1.00;;;6.90;99.90;;;;;;5005375;28;20552;-81
2023/01/09 11:53:55;;;;;;;3.07;1.00;;;6.90;99.90;;;;;;4979294;28;20038;-80
2023/01/09 11:56:21;;;;;;;4.07;1.27;;;6.90;99.90;;;;;;5000551;28;20037;-81
2023/01/09 11:58:46;;;;;;;3.53;1.10;;;6.90;99.90;;;;;;5004800;28;20831;-81
2023/01/09 12:01:12;;;;;;;4.40;1.40;;;6.90;99.90;;;;;;5004042;28;20346;-79
2023/01/09 12:03:58;;;;;;;4.80;1.53;;;7.00;99.90;;;;;;5003225;28;20042;-78
2023/01/09 12:06:45;;;;;;;4.23;1.20;;;7.00;99.90;;;;;;5024967;28;20034;-79
2023/01/09 12:09:55;;;;;;;1.50;0.90;;;7.00;99.90;;;;;;5004607;28;20037;-78
2023/01/09 12:12:45;;;;;;;3.23;1.20;;;7.10;99.90;;;;;;4981068;28;20878;-78
2023/01/09 12:15:27;;;;;;;2.40;0.90;;;7.20;99.90;;;;;;5007255;28;20061;-79
2023/01/09 12:18:05;;;;;;;8.93;1.50;;;7.20;99.90;;;;;;4989087;28;20045;-78
2023/01/09 12:20:52;;;;;;;7.17;1.13;;;7.20;99.90;;;;;;5004363;28;20511;-79
2023/01/09 12:23:37;;;;;;;5.47;1.10;;;7.20;99.90;;;;;;5006900;28;20037;-79
2023/01/09 12:26:11;;;;;;;;;;;7.20;99.90;;;;;;4981288;28;20752;-79
2023/01/09 12:28:49;;;;;;;3.00;1.03;;;7.10;99.90;;;;;;4985451;28;19917;-78
2023/01/09 12:31:23;;;;;;;2.70;0.83;;;7.10;99.90;;;;;;5008097;28;20093;-78
2023/01/09 12:34:07;;;;;;;2.70;0.90;;;7.10;99.90;;;;;;4983795;28;20026;-78
2023/01/09 12:36:58;;;;;;;5.30;1.00;;;7.10;99.90;;;;;;5001872;28;20060;-79
2023/01/09 12:40:05;;;;;;;6.83;2.03;;;7.10;99.90;;;;;;5005088;28;20026;-78
2023/01/09 12:42:53;;;;;;;3.10;1.13;;;7.20;99.90;;;;;;5002306;28;20088;-78
2023/01/09 12:45:27;;;;;;;4.77;1.37;;;7.30;99.90;;;;;;5002092;28;20057;-79
2023/01/09 12:48:03;;;;;;;2.83;1.00;;;7.30;99.90;;;;;;4989774;28;20036;-78
2023/01/09 12:51:06;;;;;;;3.27;0.70;;;7.30;99.90;;;;;;4983106;28;20056;-79
2023/01/09 12:53:54;;;;;;;3.73;0.80;;;7.30;99.90;;;;;;5002493;28;20133;-81
2023/01/09 12:56:25;;;;;;;2.97;0.97;;;7.40;99.90;;;;;;5005137;28;20505;-80
2023/01/09 12:59:05;;;;;;;4.33;1.00;;;7.40;99.90;;;;;;4999303;28;20026;-81
2023/01/09 13:01:38;;;;;;;3.60;1.30;;;7.40;99.90;;;;;;4984563;28;20057;-80
2023/01/09 13:04:14;;;;;;;1.90;0.90;;;7.40;99.90;;;;;;5006801;28;20044;-80
2023/01/09 13:06:43;;;;;;;;;;;7.40;99.90;;;;;;5004918;28;20117;-80
2023/01/09 13:09:15;;;;;;;4.77;1.13;;;7.40;99.90;;;;;;4984833;28;19932;-80
2023/01/09 13:11:48;;;;;;;5.83;1.23;;;7.40;99.90;;;;;;4989378;28;20490;-80
2023/01/09 13:14:40;;;;;;;3.03;1.00;;;7.50;99.90;;;;;;5004634;28;20136;-80
2023/01/09 13:17:17;;;;;;;3.33;0.93;;;7.50;99.90;;;;;;5003348;28;20540;-81
2023/01/09 13:19:42;;;;;;;4.93;1.63;;;7.40;99.90;;;;;;5007815;28;20148;-81
2023/01/09 13:22:11;;;;;;;4.10;0.97;;;7.40;99.90;;;;;;5005571;28;21450;-81
2023/01/09 13:24:57;;;;;;;3.17;0.90;;;7.30;99.90;;;;;;4984377;28;20038;-83
2023/01/09 13:27:25;;;;;;;3.80;1.33;;;7.30;99.90;;;;;;5008861;28;20097;-83
2023/01/09 13:29:59;;;;;;;4.63;1.00;;;7.30;99.90;;;;;;5005246;28;20040;-83